createdAt,value
2023-02-08T00:01:23.935Z,102920.25
2023-02-08T00:03:59.095Z,102920.05
2023-02-08T00:06:30.179Z,102921.35
2023-02-08T00:09:03.392Z,102928.20
2023-02-08T00:11:36.138Z,102932.64
2023-02-08T00:14:05.439Z,102927.48
2023-02-08T00:16:36.123Z,102932.31
2023-02-08T00:19:05.184Z,102931.60
2023-02-08T00:21:36.482Z,102931.50
2023-02-08T00:24:06.994Z,102932.86
2023-02-08T00:26:39.744Z,102937.70
2023-02-08T00:29:11.407Z,102941.70
2023-02-08T00:31:42.277Z,102943.08
2023-02-08T00:34:12.097Z,102941.47
2023-02-08T00:36:43.651Z,102940.98
2023-02-08T00:39:14.003Z,102941.67
2023-02-08T00:42:06.524Z,102943.63
2023-02-08T00:44:44.665Z,102940.58
2023-02-08T00:47:14.901Z,102939.14
2023-02-08T00:49:45.424Z,102944.84
2023-02-08T00:52:17.728Z,102939.73
2023-02-08T00:54:50.784Z,102935.90
2023-02-08T00:57:22.604Z,102941.41
2023-02-08T00:59:55.030Z,102936.85
2023-02-08T01:02:23.839Z,102936.23
2023-02-08T01:04:54.869Z,102934.55
2023-02-08T01:07:27.226Z,102930.49
2023-02-08T01:09:57.499Z,102928.25
2023-02-08T01:12:29.315Z,102928.98
2023-02-08T01:15:03.102Z,102930.91
2023-02-08T01:17:35.327Z,102924.63
2023-02-08T01:20:04.902Z,102924.09
2023-02-08T01:22:34.953Z,102926.69
2023-02-08T01:25:06.033Z,102923.02
2023-02-08T01:27:40.231Z,102924.11
2023-02-08T01:30:14.156Z,102921.73
2023-02-08T01:32:44.725Z,102919.23
2023-02-08T01:35:14.568Z,102925.84
2023-02-08T01:37:46.162Z,102925.89
2023-02-08T01:40:16.514Z,102927.88
2023-02-08T01:42:47.801Z,102929.84
2023-02-08T01:45:23.492Z,102931.12
2023-02-08T01:48:00.508Z,102932.82
2023-02-08T01:50:33.809Z,102929.40
2023-02-08T01:53:06.182Z,102934.30
2023-02-08T01:55:39.149Z,102936.17
2023-02-08T01:58:11.571Z,102936.16
2023-02-08T02:00:43.020Z,102937.29
2023-02-08T02:03:18.882Z,102938.27
2023-02-08T02:05:50.692Z,102935.36
2023-02-08T02:08:20.847Z,102932.67
2023-02-08T02:10:52.712Z,102934.47
2023-02-08T02:13:24.409Z,102937.61
2023-02-08T02:15:58.687Z,102937.73
2023-02-08T02:18:31.528Z,102935.14
2023-02-08T02:21:25.603Z,102934.15
2023-02-08T02:24:11.441Z,102936.55
2023-02-08T02:26:45.107Z,102932.41
2023-02-08T02:29:34.408Z,102933.80
2023-02-08T02:32:04.145Z,102933.07
2023-02-08T02:34:34.304Z,102935.23
2023-02-08T02:37:05.384Z,102938.15
2023-02-08T02:39:54.044Z,102939.14
2023-02-08T02:42:59.963Z,102942.27
2023-02-08T02:45:37.469Z,102944.80
2023-02-08T02:48:19.688Z,102941.17
2023-02-08T02:51:01.319Z,102949.91
2023-02-08T02:53:42.851Z,102953.42
2023-02-08T02:56:17.929Z,102957.47
2023-02-08T02:58:47.572Z,102957.28
2023-02-08T03:01:27.591Z,102958.91
2023-02-08T03:04:01.329Z,102960.38
2023-02-08T03:06:54.656Z,102960.16
2023-02-08T03:09:43.213Z,102959.31
2023-02-08T03:12:30.037Z,102958.71
2023-02-08T03:15:21.109Z,102954.42
2023-02-08T03:18:10.221Z,102959.30
2023-02-08T03:20:43.853Z,102964.50
2023-02-08T03:23:22.807Z,102966.25
2023-02-08T03:25:56.335Z,102966.67
2023-02-08T03:28:53.112Z,102966.77
2023-02-08T03:31:26.441Z,102970.81
2023-02-08T03:33:59.850Z,102972.30
2023-02-08T03:36:34.871Z,102966.81
2023-02-08T03:39:12.176Z,102976.96
2023-02-08T03:41:46.955Z,102984.58
2023-02-08T03:44:24.596Z,102981.20
2023-02-08T03:47:01.822Z,102980.71
2023-02-08T03:49:37.536Z,102978.66
2023-02-08T03:52:09.141Z,102973.87
2023-02-08T03:54:42.807Z,102973.89
2023-02-08T03:57:23.784Z,102977.87
2023-02-08T04:00:02.515Z,102974.34
2023-02-08T04:02:54.313Z,102978.55
2023-02-08T04:05:31.344Z,102978.52
2023-02-08T04:08:05.902Z,102979.46
2023-02-08T04:10:38.327Z,102981.86
2023-02-08T04:13:08.139Z,102988.46
2023-02-08T04:15:40.680Z,102991.80
2023-02-08T04:18:12.504Z,102993.73
2023-02-08T04:20:45.944Z,102991.32
2023-02-08T04:23:23.728Z,102994.55
2023-02-08T04:25:57.285Z,102997.35
2023-02-08T04:28:34.469Z,102994.95
2023-02-08T04:31:09.617Z,102995.73
2023-02-08T04:33:42.705Z,102999.36
2023-02-08T04:36:12.911Z,102999.79
2023-02-08T04:38:47.991Z,102997.86
2023-02-08T04:41:19.801Z,102994.96
2023-02-08T04:43:54.605Z,102997.73
2023-02-08T04:46:29.231Z,102994.57
2023-02-08T04:49:11.110Z,102988.98
2023-02-08T04:52:18.968Z,102988.75
2023-02-08T04:55:04.134Z,102992.30
2023-02-08T04:57:35.344Z,102994.73
2023-02-08T05:00:09.485Z,102995.86
2023-02-08T05:03:32.491Z,102993.81
2023-02-08T05:07:20.471Z,102997.80
2023-02-08T05:13:56.657Z,103003.35
2023-02-08T05:16:55.804Z,103002.69
2023-02-08T05:19:40.379Z,103001.70
2023-02-08T05:22:35.889Z,103002.74
2023-02-08T05:25:46.452Z,103006.60
2023-02-08T05:29:05.353Z,103005.39
2023-02-08T05:31:59.519Z,103003.61
2023-02-08T05:34:50.013Z,103006.73
2023-02-08T05:37:23.584Z,103012.02
2023-02-08T05:40:02.069Z,103015.09
2023-02-08T05:42:39.550Z,103014.52
2023-02-08T05:45:16.112Z,103013.02
2023-02-08T05:47:48.170Z,103016.02
2023-02-08T05:50:18.800Z,103019.73
2023-02-08T05:53:08.763Z,103022.87
2023-02-08T05:56:00.598Z,103026.48
2023-02-08T05:58:30.053Z,103028.35
2023-02-08T06:01:01.013Z,103027.34
2023-02-08T06:03:34.265Z,103027.77
2023-02-08T06:06:09.467Z,103029.17
2023-02-08T06:08:39.555Z,103032.54
2023-02-08T06:11:10.644Z,103034.57
2023-02-08T06:13:41.767Z,103034.58
2023-02-08T06:16:11.881Z,103031.38
2023-02-08T06:18:41.112Z,103036.88
2023-02-08T06:21:12.825Z,103043.80
2023-02-08T06:23:42.826Z,103054.16
2023-02-08T06:26:14.532Z,103053.37
2023-02-08T06:28:44.074Z,103055.34
2023-02-08T06:31:15.165Z,103054.05
2023-02-08T06:33:46.566Z,103060.89
2023-02-08T06:36:36.278Z,103057.95
2023-02-08T06:39:06.850Z,103056.88
2023-02-08T06:41:39.187Z,103055.72
2023-02-08T06:44:11.457Z,103055.16
2023-02-08T06:46:42.774Z,103056.89
2023-02-08T06:49:13.785Z,103053.93
2023-02-08T06:51:45.157Z,103056.45
2023-02-08T06:54:16.181Z,103052.37
2023-02-08T06:56:46.735Z,103053.94
2023-02-08T06:59:21.027Z,103055.78
2023-02-08T07:01:54.520Z,103057.63
2023-02-08T07:04:25.660Z,103064.02
2023-02-08T07:06:56.132Z,103064.53
2023-02-08T07:09:25.785Z,103070.69
2023-02-08T07:11:56.390Z,103073.05
2023-02-08T07:14:26.606Z,103075.78
2023-02-08T07:16:56.522Z,103075.92
2023-02-08T07:19:29.501Z,103073.13
2023-02-08T07:22:08.518Z,103072.02
2023-02-08T07:24:40.315Z,103075.06
2023-02-08T07:27:11.771Z,103075.39
2023-02-08T07:29:41.307Z,103071.11
2023-02-08T07:32:11.556Z,103071.79
2023-02-08T07:34:42.373Z,103071.45
2023-02-08T07:37:13.715Z,103080.00
2023-02-08T07:39:43.050Z,103076.69
2023-02-08T07:42:15.745Z,103079.67
2023-02-08T07:44:54.052Z,103074.94
2023-02-08T07:47:25.136Z,103078.73
2023-02-08T07:49:55.684Z,103075.05
2023-02-08T07:52:27.063Z,103071.21
2023-02-08T07:54:58.190Z,103077.85
2023-02-08T07:57:28.657Z,103081.80
2023-02-08T08:00:01.214Z,103083.07
2023-02-08T08:02:30.924Z,103084.09
2023-02-08T08:05:01.335Z,103088.50
2023-02-08T08:07:34.491Z,103088.73
2023-02-08T08:10:04.974Z,103086.84
2023-02-08T08:12:34.274Z,103086.09
2023-02-08T08:15:03.350Z,103083.40
2023-02-08T08:17:32.401Z,103086.90
2023-02-08T08:20:02.756Z,103083.10
2023-02-08T08:22:33.041Z,103079.14
2023-02-08T08:25:02.237Z,103078.29
2023-02-08T08:27:31.770Z,103077.03
2023-02-08T08:30:00.738Z,103072.12
2023-02-08T08:32:34.175Z,103070.65
2023-02-08T08:35:12.085Z,103071.98
2023-02-08T08:37:49.543Z,103076.14
2023-02-08T08:40:27.599Z,103076.12
2023-02-08T08:43:05.669Z,103075.38
2023-02-08T08:45:44.657Z,103079.98
2023-02-08T08:48:28.953Z,103082.80
2023-02-08T08:51:06.335Z,103076.75
2023-02-08T08:53:43.772Z,103082.66
2023-02-08T08:56:21.502Z,103088.14
2023-02-08T08:58:59.545Z,103085.12
2023-02-08T09:01:44.297Z,103088.91
2023-02-08T09:04:27.143Z,103094.04
2023-02-08T09:07:02.376Z,103099.08
2023-02-08T09:09:40.370Z,103092.70
2023-02-08T09:12:14.196Z,103091.52
2023-02-08T09:14:47.501Z,103087.76
2023-02-08T09:17:20.203Z,103078.20
2023-02-08T09:19:51.108Z,103067.70
2023-02-08T09:22:21.564Z,103067.11
2023-02-08T09:24:53.727Z,103061.09
2023-02-08T09:27:23.536Z,103063.65
2023-02-08T09:29:56.031Z,103065.20
2023-02-08T09:32:25.828Z,103068.55
2023-02-08T09:34:55.256Z,103066.30
2023-02-08T09:37:25.135Z,103056.25
2023-02-08T09:39:55.013Z,103055.55
2023-02-08T09:42:29.838Z,103052.68
2023-02-08T09:45:29.133Z,103051.84
2023-02-08T09:48:02.563Z,103051.55
2023-02-08T09:50:34.202Z,103051.54
2023-02-08T09:53:34.792Z,103053.54
2023-02-08T09:56:06.443Z,103054.23
2023-02-08T09:58:42.555Z,103058.30
2023-02-08T10:01:31.793Z,103058.86
2023-02-08T10:04:00.748Z,103066.64
2023-02-08T10:06:31.998Z,103073.39
2023-02-08T10:09:04.300Z,103068.51
2023-02-08T10:11:44.538Z,103065.55
2023-02-08T10:14:30.306Z,103063.10
2023-02-08T10:17:17.928Z,103061.48
2023-02-08T10:20:03.324Z,103056.23
2023-02-08T10:22:53.623Z,103061.91
2023-02-08T10:25:41.415Z,103061.08
2023-02-08T10:28:33.826Z,103064.98
2023-02-08T10:31:03.343Z,103069.13
2023-02-08T10:33:38.453Z,103066.75
2023-02-08T10:36:16.692Z,103072.23
2023-02-08T10:38:48.249Z,103071.39
2023-02-08T10:41:22.118Z,103066.30
2023-02-08T10:43:59.827Z,103070.95
2023-02-08T10:46:42.632Z,103065.35
2023-02-08T10:49:18.577Z,103065.79
2023-02-08T10:51:48.607Z,103061.73
2023-02-08T10:54:20.402Z,103060.42
2023-02-08T10:56:58.000Z,103059.09
2023-02-08T10:59:32.144Z,103056.70
2023-02-08T11:02:02.890Z,103056.92
2023-02-08T11:04:37.365Z,103053.46
2023-02-08T11:07:22.251Z,103051.50
2023-02-08T11:09:53.177Z,103048.30
2023-02-08T11:12:25.172Z,103045.39
2023-02-08T11:14:55.175Z,103041.33
2023-02-08T11:17:28.736Z,103039.29
2023-02-08T11:19:59.283Z,103033.18
2023-02-08T11:22:34.936Z,103029.76
2023-02-08T11:25:07.886Z,103024.61
2023-02-08T11:27:41.174Z,103022.20
2023-02-08T11:30:19.249Z,103026.64
2023-02-08T11:32:49.424Z,103026.42
2023-02-08T11:35:22.223Z,103021.30
2023-02-08T11:37:51.220Z,103023.52
2023-02-08T11:40:30.154Z,103022.77
2023-02-08T11:43:00.583Z,103016.58
2023-02-08T11:45:38.324Z,103019.36
2023-02-08T11:48:20.523Z,103015.40
2023-02-08T11:50:58.490Z,103015.08
2023-02-08T11:53:30.150Z,103019.14
2023-02-08T11:56:04.948Z,103020.17
2023-02-08T11:58:36.996Z,103019.91
2023-02-08T12:01:21.483Z,103022.99
2023-02-08T12:03:53.540Z,103022.40
2023-02-08T12:06:27.848Z,103015.65
2023-02-08T12:09:18.346Z,103018.09
2023-02-08T12:11:49.447Z,103017.17
2023-02-08T12:14:38.244Z,103017.11
2023-02-08T12:17:38.477Z,103011.60
2023-02-08T12:20:23.744Z,103013.40
2023-02-08T12:23:05.578Z,103008.69
2023-02-08T12:25:45.680Z,103009.56
2023-02-08T12:28:33.835Z,103006.80
2023-02-08T12:31:10.143Z,103003.92
2023-02-08T12:33:47.162Z,103003.13
2023-02-08T12:36:17.712Z,103009.17
2023-02-08T12:39:26.100Z,103008.73
2023-02-08T12:42:14.427Z,103013.27
2023-02-08T12:45:33.302Z,103019.39
2023-02-08T12:48:21.875Z,103021.04
2023-02-08T12:50:56.936Z,103017.11
2023-02-08T12:53:31.679Z,103011.61
2023-02-08T12:56:03.370Z,103014.83
2023-02-08T12:58:44.902Z,103011.64
2023-02-08T13:01:20.017Z,103008.16
2023-02-08T13:03:52.050Z,103012.52
2023-02-08T13:06:26.121Z,103008.05
2023-02-08T13:09:30.676Z,103003.34
2023-02-08T13:12:12.782Z,102999.56
2023-02-08T13:14:55.029Z,102997.56
2023-02-08T13:17:34.199Z,102988.88
2023-02-08T13:20:05.762Z,102987.14
2023-02-08T13:22:38.461Z,102988.98
2023-02-08T13:25:15.379Z,102983.02
2023-02-08T13:27:45.127Z,102979.95
2023-02-08T13:30:19.125Z,102986.09
2023-02-08T13:32:51.087Z,102986.66
2023-02-08T13:35:21.482Z,102984.12
2023-02-08T13:37:52.858Z,102984.31
2023-02-08T13:40:29.018Z,102985.14
2023-02-08T13:43:34.820Z,102986.01
2023-02-08T13:46:11.787Z,102988.36
2023-02-08T13:49:02.856Z,102983.12
2023-02-08T13:51:32.029Z,102983.08
2023-02-08T13:54:01.672Z,102984.66
2023-02-08T13:56:42.519Z,102983.08
2023-02-08T13:59:27.672Z,102981.45
2023-02-08T14:02:17.249Z,102981.30
2023-02-08T14:04:48.200Z,102976.53
2023-02-08T14:07:20.129Z,102973.42
2023-02-08T14:10:10.688Z,102968.25
2023-02-08T14:12:55.887Z,102971.86
2023-02-08T14:15:26.248Z,102972.87
2023-02-08T14:17:58.619Z,102972.80
2023-02-08T14:20:40.189Z,102975.02
2023-02-08T14:23:31.394Z,102970.70
2023-02-08T14:26:09.165Z,102968.31
2023-02-08T14:28:40.852Z,102961.70
2023-02-08T14:31:12.521Z,102960.20
2023-02-08T14:33:44.803Z,102960.38
2023-02-08T14:36:25.490Z,102959.33
2023-02-08T14:39:07.313Z,102961.32
2023-02-08T14:41:44.327Z,102962.66
2023-02-08T14:44:33.527Z,102963.98
2023-02-08T14:47:02.779Z,102959.67
2023-02-08T14:49:43.403Z,102955.61
2023-02-08T14:52:21.679Z,102949.38
2023-02-08T14:54:50.530Z,102948.07
2023-02-08T14:57:27.073Z,102939.65
2023-02-08T15:00:00.288Z,102940.88
2023-02-08T15:02:34.143Z,102939.37
2023-02-08T15:05:09.923Z,102934.11
2023-02-08T15:07:50.871Z,102932.41
2023-02-08T15:10:21.581Z,102933.08
2023-02-08T15:12:54.492Z,102928.64
2023-02-08T15:15:25.575Z,102925.77
2023-02-08T15:17:58.400Z,102926.98
2023-02-08T15:20:29.256Z,102925.88
2023-02-08T15:23:02.306Z,102924.46
2023-02-08T15:25:33.014Z,102923.88
2023-02-08T15:28:04.214Z,102918.41
2023-02-08T15:30:34.763Z,102922.86
2023-02-08T15:33:09.133Z,102925.46
2023-02-08T15:35:38.826Z,102929.24
2023-02-08T15:38:15.504Z,102926.62
2023-02-08T15:40:50.452Z,102929.80
2023-02-08T15:43:20.963Z,102931.05
2023-02-08T15:46:19.169Z,102933.31
2023-02-08T15:48:50.985Z,102931.61
2023-02-08T15:51:23.660Z,102931.58
2023-02-08T15:53:57.273Z,102933.06
2023-02-08T15:56:37.870Z,102933.71
2023-02-08T15:59:17.724Z,102934.57
2023-02-08T16:01:49.054Z,102936.38
2023-02-08T16:04:20.219Z,102936.21
2023-02-08T16:06:57.423Z,102940.13
2023-02-08T16:09:30.800Z,102940.64
2023-02-08T16:12:04.253Z,102945.26
2023-02-08T16:14:51.666Z,102940.63
2023-02-08T16:17:42.165Z,102938.80
2023-02-08T16:20:25.000Z,102938.61
2023-02-08T16:23:24.593Z,102941.31
2023-02-08T16:25:56.046Z,102939.32
2023-02-08T16:28:28.878Z,102936.03
2023-02-08T16:31:02.254Z,102938.46
2023-02-08T16:33:33.990Z,102938.16
2023-02-08T16:36:04.501Z,102938.02
2023-02-08T16:38:34.876Z,102933.74
2023-02-08T16:41:15.276Z,102932.75
2023-02-08T16:43:53.267Z,102933.13
2023-02-08T16:46:30.709Z,102937.58
2023-02-08T16:49:01.570Z,102933.87
2023-02-08T16:51:32.796Z,102937.52
2023-02-08T16:54:07.322Z,102934.79
2023-02-08T16:56:37.948Z,102935.07
2023-02-08T16:59:10.250Z,102934.45
2023-02-08T17:01:46.822Z,102933.17
2023-02-08T17:04:19.658Z,102927.92
2023-02-08T17:06:52.005Z,102923.17
2023-02-08T17:09:23.530Z,102923.89
2023-02-08T17:11:55.191Z,102929.04
2023-02-08T17:14:27.002Z,102926.96
2023-02-08T17:16:57.361Z,102924.59
2023-02-08T17:19:29.170Z,102921.02
2023-02-08T17:22:05.743Z,102919.45
2023-02-08T17:24:39.120Z,102914.26
2023-02-08T17:27:12.858Z,102913.98
2023-02-08T17:29:44.549Z,102916.69
2023-02-08T17:32:16.131Z,102913.06
2023-02-08T17:34:47.598Z,102915.81
2023-02-08T17:37:22.935Z,102916.16
2023-02-08T17:39:56.361Z,102915.20
2023-02-08T17:42:29.344Z,102913.38
2023-02-08T17:45:30.341Z,102916.95
2023-02-08T17:48:01.899Z,102917.11
2023-02-08T17:50:31.916Z,102911.62
2023-02-08T17:53:05.494Z,102908.05
2023-02-08T17:55:40.101Z,102911.98
2023-02-08T17:58:11.803Z,102910.63
2023-02-08T18:00:43.113Z,102904.75
2023-02-08T18:03:14.403Z,102906.55
2023-02-08T18:05:44.752Z,102908.62
2023-02-08T18:08:17.184Z,102906.69
2023-02-08T18:10:48.675Z,102907.33
2023-02-08T18:13:29.205Z,102905.46
2023-02-08T18:16:07.882Z,102902.67
2023-02-08T18:18:38.975Z,102903.39
2023-02-08T18:21:13.441Z,102903.36
2023-02-08T18:23:44.623Z,102906.48
2023-02-08T18:26:20.274Z,102902.91
2023-02-08T18:28:53.235Z,102895.84
2023-02-08T18:31:26.395Z,102894.31
2023-02-08T18:33:59.364Z,102890.14
2023-02-08T18:36:29.421Z,102884.73
2023-02-08T18:39:02.933Z,102880.87
2023-02-08T18:41:35.275Z,102878.68
2023-02-08T18:44:07.672Z,102879.30
2023-02-08T18:46:42.642Z,102883.54
2023-02-08T18:49:17.736Z,102878.58
2023-02-08T18:51:51.641Z,102876.65
2023-02-08T18:54:26.255Z,102876.20
2023-02-08T18:56:57.214Z,102877.28
2023-02-08T18:59:31.255Z,102875.69
2023-02-08T19:02:03.168Z,102876.67
2023-02-08T19:04:40.642Z,102875.60
2023-02-08T19:07:15.652Z,102869.53
2023-02-08T19:09:50.492Z,102867.59
2023-02-08T19:12:28.385Z,102865.48
2023-02-08T19:14:58.774Z,102864.05
2023-02-08T19:17:31.802Z,102855.00
2023-02-08T19:20:04.989Z,102855.75
2023-02-08T19:22:39.059Z,102850.52
2023-02-08T19:25:12.119Z,102842.91
2023-02-08T19:27:42.812Z,102840.48
2023-02-08T19:30:18.410Z,102841.14
2023-02-08T19:32:49.386Z,102837.48
2023-02-08T19:35:22.425Z,102840.04
2023-02-08T19:37:56.257Z,102842.23
2023-02-08T19:40:33.340Z,102836.35
2023-02-08T19:43:04.673Z,102829.67
2023-02-08T19:45:45.850Z,102825.96
2023-02-08T19:48:20.948Z,102822.84
2023-02-08T19:50:55.473Z,102819.56
2023-02-08T19:53:29.799Z,102819.09
2023-02-08T19:56:10.615Z,102817.23
2023-02-08T19:58:44.704Z,102817.27
2023-02-08T20:01:31.010Z,102815.58
2023-02-08T20:04:06.643Z,102820.48
2023-02-08T20:06:39.982Z,102817.06
2023-02-08T20:09:12.683Z,102816.71
2023-02-08T20:11:56.436Z,102810.67
2023-02-08T20:14:30.868Z,102813.75
2023-02-08T20:17:04.780Z,102816.35
2023-02-08T20:19:38.165Z,102814.12
2023-02-08T20:22:11.720Z,102812.86
2023-02-08T20:24:51.839Z,102811.59
2023-02-08T20:27:30.825Z,102806.55
2023-02-08T20:30:02.618Z,102804.88
2023-02-08T20:32:36.165Z,102802.96
2023-02-08T20:35:21.918Z,102798.52
2023-02-08T20:37:55.385Z,102795.46
2023-02-08T20:40:28.850Z,102791.81
2023-02-08T20:43:03.467Z,102787.73
2023-02-08T20:45:43.089Z,102788.35
2023-02-08T20:48:14.600Z,102788.44
2023-02-08T20:50:51.082Z,102786.61
2023-02-08T20:53:22.955Z,102781.22
2023-02-08T20:55:54.702Z,102783.97
2023-02-08T20:58:28.813Z,102778.13
2023-02-08T21:01:03.728Z,102778.80
2023-02-08T21:03:34.652Z,102775.81
2023-02-08T21:06:23.381Z,102776.77
2023-02-08T21:08:58.202Z,102778.55
2023-02-08T21:11:31.816Z,102773.39
2023-02-08T21:14:02.065Z,102774.78
2023-02-08T21:16:33.439Z,102775.33
2023-02-08T21:19:05.082Z,102768.68
2023-02-08T21:21:38.258Z,102768.55
2023-02-08T21:24:09.005Z,102764.62
2023-02-08T21:26:40.447Z,102760.02
2023-02-08T21:29:10.339Z,102757.78
2023-02-08T21:31:42.588Z,102759.13
2023-02-08T21:34:19.704Z,102759.88
2023-02-08T21:37:17.869Z,102764.45
2023-02-08T21:39:47.473Z,102759.92
2023-02-08T21:42:21.802Z,102753.70
2023-02-08T21:44:53.791Z,102752.35
2023-02-08T21:47:25.128Z,102746.72
2023-02-08T21:50:18.156Z,102752.81
2023-02-08T21:53:07.123Z,102745.56
2023-02-08T21:55:38.632Z,102746.14
2023-02-08T21:58:09.549Z,102744.76
2023-02-08T22:00:40.702Z,102736.77
2023-02-08T22:03:12.876Z,102735.92
2023-02-08T22:06:01.985Z,102730.07
2023-02-08T22:08:31.730Z,102727.40
2023-02-08T22:11:05.014Z,102719.02
2023-02-08T22:13:35.544Z,102715.64
2023-02-08T22:16:08.008Z,102712.20
2023-02-08T22:18:41.563Z,102711.42
2023-02-08T22:21:10.937Z,102709.05
2023-02-08T22:23:42.890Z,102708.80
2023-02-08T22:26:12.563Z,102706.17
2023-02-08T22:28:44.269Z,102706.50
2023-02-08T22:31:17.427Z,102704.20
2023-02-08T22:33:48.216Z,102699.43
2023-02-08T22:36:17.379Z,102696.23
2023-02-08T22:38:51.609Z,102688.20
2023-02-08T22:41:23.006Z,102680.51
2023-02-08T22:43:55.461Z,102680.48
2023-02-08T22:46:30.058Z,102676.23
2023-02-08T22:49:01.641Z,102681.48
2023-02-08T22:51:31.125Z,102680.67
2023-02-08T22:54:03.745Z,102684.54
2023-02-08T22:56:34.513Z,102685.21
2023-02-08T22:59:05.741Z,102691.05
2023-02-08T23:01:34.992Z,102689.55
2023-02-08T23:04:05.234Z,102689.85
2023-02-08T23:06:36.092Z,102679.87
2023-02-08T23:09:07.213Z,102675.77
2023-02-08T23:11:36.800Z,102671.80
2023-02-08T23:14:08.194Z,102669.88
2023-02-08T23:16:38.347Z,102666.88
2023-02-08T23:19:09.470Z,102662.38
2023-02-08T23:21:39.924Z,102661.63
2023-02-08T23:24:09.565Z,102663.10
2023-02-08T23:26:41.497Z,102665.27
2023-02-08T23:29:10.813Z,102668.36
2023-02-08T23:31:41.758Z,102668.16
2023-02-08T23:34:12.508Z,102663.52
2023-02-08T23:36:43.391Z,102668.38
2023-02-08T23:39:13.937Z,102672.47
2023-02-08T23:41:44.741Z,102671.70
2023-02-08T23:44:15.723Z,102670.36
2023-02-08T23:46:55.097Z,102669.53
2023-02-08T23:49:24.376Z,102669.58
2023-02-08T23:51:56.316Z,102666.19
2023-02-08T23:54:25.450Z,102656.98
2023-02-08T23:56:57.947Z,102649.48
2023-02-08T23:59:29.643Z,102650.42
